createdAt,value
2023-04-04T00:02:27.345Z,99987.91
2023-04-04T00:05:13.062Z,99974.03
2023-04-04T00:07:58.362Z,99976.81
2023-04-04T00:10:43.547Z,99971.25
2023-04-04T00:13:29.127Z,99970.47
2023-04-04T00:16:14.722Z,99970.47
2023-04-04T00:19:01.011Z,99966.88
2023-04-04T00:21:46.901Z,99963.31
2023-04-04T00:24:32.103Z,99964.09
2023-04-04T00:27:17.430Z,99962.91
2023-04-04T00:30:02.795Z,99963.31
2023-04-04T00:32:48.045Z,99950.63
2023-04-04T00:35:33.855Z,99953.78
2023-04-04T00:38:18.983Z,99960.53
2023-04-04T00:41:06.694Z,99956.19
2023-04-04T00:43:52.886Z,99958.53
2023-04-04T00:46:38.079Z,99950.63
2023-04-04T00:49:23.377Z,99954.59
2023-04-04T00:52:08.873Z,99953.81
2023-04-04T00:54:57.738Z,99954.19
2023-04-04T00:57:43.466Z,99956.19
2023-04-04T01:00:28.937Z,99953.84
2023-04-04T01:03:14.778Z,99941.91
2023-04-04T01:06:08.397Z,99949.47
2023-04-04T01:08:55.326Z,99940.75
2023-04-04T01:11:41.445Z,99948.69
2023-04-04T01:14:27.221Z,99945.13
2023-04-04T01:17:12.751Z,99938.75
2023-04-04T01:20:13.362Z,99937.19
2023-04-04T01:23:17.994Z,99937.19
2023-04-04T01:26:04.501Z,99935.56
2023-04-04T01:28:51.523Z,99933.19
2023-04-04T01:31:48.398Z,99936.41
2023-04-04T01:34:33.688Z,99937.19
2023-04-04T01:37:37.486Z,99930.84
2023-04-04T01:40:37.483Z,99934.00
2023-04-04T01:43:24.111Z,99934.78
2023-04-04T01:46:09.758Z,99930.03
2023-04-04T01:48:55.102Z,99924.47
2023-04-04T01:51:45.290Z,99918.91
2023-04-04T01:54:32.354Z,99918.56
2023-04-04T01:57:17.669Z,99915.78
2023-04-04T02:00:03.598Z,99914.97
2023-04-04T02:02:48.827Z,99907.44
2023-04-04T02:05:34.129Z,99911.41
2023-04-04T02:08:19.460Z,99902.28
2023-04-04T02:11:10.644Z,99905.47
2023-04-04T02:13:55.791Z,99908.25
2023-04-04T02:16:41.764Z,99903.47
2023-04-04T02:19:27.293Z,99902.28
2023-04-04T02:22:12.445Z,99906.25
2023-04-04T02:24:57.820Z,99904.66
2023-04-04T02:27:43.250Z,99901.13
2023-04-04T02:30:28.475Z,99906.66
2023-04-04T02:33:13.708Z,99900.31
2023-04-04T02:36:00.415Z,99895.16
2023-04-04T02:38:47.272Z,99907.84
2023-04-04T02:41:33.148Z,99903.50
2023-04-04T02:44:18.924Z,99892.41
2023-04-04T02:47:07.779Z,99893.56
2023-04-04T02:49:53.357Z,99892.78
2023-04-04T02:52:39.055Z,99894.38
2023-04-04T02:55:30.269Z,99892.78
2023-04-04T02:58:15.530Z,99890.78
2023-04-04T03:01:01.041Z,99886.44
2023-04-04T03:03:52.458Z,99900.72
2023-04-04T03:06:38.183Z,99888.84
2023-04-04T03:09:23.487Z,99901.50
2023-04-04T03:12:09.431Z,99901.50
2023-04-04T03:14:54.650Z,99901.50
2023-04-04T03:17:41.359Z,99893.19
2023-04-04T03:20:27.138Z,99889.63
2023-04-04T03:23:12.288Z,99893.19
2023-04-04T03:25:57.920Z,99888.84
2023-04-04T03:28:43.427Z,99890.41
2023-04-04T03:31:30.797Z,99884.84
2023-04-04T03:34:16.434Z,99883.28
2023-04-04T03:37:01.701Z,99884.06
2023-04-04T03:39:47.171Z,99890.41
2023-04-04T03:42:35.540Z,99884.84
2023-04-04T03:45:26.215Z,99884.06
2023-04-04T03:48:11.613Z,99874.94
2023-04-04T03:50:58.466Z,99877.72
2023-04-04T03:53:44.145Z,99877.72
2023-04-04T03:56:31.416Z,99876.94
2023-04-04T03:59:19.125Z,99880.50
2023-04-04T04:02:05.745Z,99880.13
2023-04-04T04:04:51.239Z,99882.06
2023-04-04T04:07:36.574Z,99876.91
2023-04-04T04:10:22.162Z,99875.28
2023-04-04T04:13:08.091Z,99880.00
2023-04-04T04:15:54.879Z,99877.22
2023-04-04T04:18:45.630Z,99884.72
2023-04-04T04:21:37.056Z,99879.53
2023-04-04T04:24:22.437Z,99884.66
2023-04-04T04:27:08.014Z,99883.84
2023-04-04T04:29:53.317Z,99887.41
2023-04-04T04:32:38.632Z,99883.81
2023-04-04T04:35:25.372Z,99878.66
2023-04-04T04:38:13.377Z,99877.44
2023-04-04T04:40:59.271Z,99882.19
2023-04-04T04:43:51.251Z,99883.75
2023-04-04T04:46:36.389Z,99876.59
2023-04-04T04:49:29.109Z,99873.41
2023-04-04T04:52:15.719Z,99874.97
2023-04-04T04:55:02.602Z,99882.91
2023-04-04T04:57:48.608Z,99882.09
2023-04-04T05:00:44.476Z,99880.50
2023-04-04T05:03:30.096Z,99884.88
2023-04-04T05:06:16.419Z,99873.38
2023-04-04T05:09:02.711Z,99886.84
2023-04-04T05:11:54.827Z,99888.84
2023-04-04T05:14:44.814Z,99892.44
2023-04-04T05:17:30.078Z,99882.13
2023-04-04T05:20:23.267Z,99890.50
2023-04-04T05:23:09.859Z,99901.22
2023-04-04T05:25:58.492Z,99906.44
2023-04-04T05:28:48.255Z,99904.44
2023-04-04T05:31:34.207Z,99902.44
2023-04-04T05:34:24.764Z,99909.22
2023-04-04T05:37:10.496Z,99910.81
2023-04-04T05:39:56.654Z,99915.56
2023-04-04T05:42:42.777Z,99919.56
2023-04-04T05:45:28.533Z,99917.19
2023-04-04T05:48:15.522Z,99916.00
2023-04-04T05:51:07.585Z,99914.06
2023-04-04T05:54:02.582Z,99919.63
2023-04-04T05:56:51.821Z,99920.41
2023-04-04T05:59:49.124Z,99920.03
2023-04-04T06:02:35.738Z,99919.63
2023-04-04T06:05:22.506Z,99922.81
2023-04-04T06:08:07.719Z,99924.41
2023-04-04T06:10:55.238Z,99922.41
2023-04-04T06:13:41.250Z,99928.41
2023-04-04T06:16:32.138Z,99926.41
2023-04-04T06:19:17.443Z,99923.63
2023-04-04T06:22:02.695Z,99916.91
2023-04-04T06:24:50.973Z,99921.25
2023-04-04T06:27:37.156Z,99919.69
2023-04-04T06:30:25.666Z,99914.94
2023-04-04T06:33:11.809Z,99913.34
2023-04-04T06:36:02.674Z,99912.56
2023-04-04T06:38:47.703Z,99907.41
2023-04-04T06:41:36.182Z,99910.97
2023-04-04T06:44:21.303Z,99913.34
2023-04-04T06:47:07.115Z,99909.78
2023-04-04T06:49:52.829Z,99918.56
2023-04-04T06:52:39.920Z,99912.56
2023-04-04T06:55:26.615Z,99911.00
2023-04-04T06:58:11.948Z,99913.00
2023-04-04T07:00:59.738Z,99914.19
2023-04-04T07:03:45.491Z,99907.81
2023-04-04T07:06:31.430Z,99907.00
2023-04-04T07:09:28.118Z,99907.00
2023-04-04T07:12:14.565Z,99903.84
2023-04-04T07:14:59.980Z,99903.84
2023-04-04T07:17:45.297Z,99904.63
2023-04-04T07:20:30.473Z,99907.00
2023-04-04T07:23:15.897Z,99905.41
2023-04-04T07:26:01.110Z,99903.84
2023-04-04T07:28:46.481Z,99910.22
2023-04-04T07:31:32.622Z,99908.22
2023-04-04T07:34:18.012Z,99906.63
2023-04-04T07:37:03.679Z,99901.06
2023-04-04T07:39:50.060Z,99901.88
2023-04-04T07:42:35.993Z,99902.66
2023-04-04T07:45:24.369Z,99901.47
2023-04-04T07:48:09.829Z,99902.25
2023-04-04T07:50:55.136Z,99911.00
2023-04-04T07:53:40.471Z,99910.22
2023-04-04T07:56:26.212Z,99906.22
2023-04-04T07:59:12.110Z,99910.19
2023-04-04T08:01:57.305Z,99908.63
2023-04-04T08:04:42.730Z,99909.41
2023-04-04T08:07:30.283Z,99910.56
2023-04-04T08:10:17.832Z,99912.19
2023-04-04T08:13:05.765Z,99905.84
2023-04-04T08:15:50.807Z,99914.16
2023-04-04T08:18:35.957Z,99907.81
2023-04-04T08:21:21.193Z,99907.81
2023-04-04T08:24:06.723Z,99904.25
2023-04-04T08:27:02.311Z,99897.91
2023-04-04T08:29:50.803Z,99901.47
2023-04-04T08:32:36.096Z,99885.63
2023-04-04T08:35:21.422Z,99896.69
2023-04-04T08:38:08.394Z,99886.41
2023-04-04T08:40:53.759Z,99893.91
2023-04-04T08:43:41.528Z,99889.94
2023-04-04T08:46:27.430Z,99891.53
2023-04-04T08:49:14.437Z,99889.56
2023-04-04T08:52:02.778Z,99890.34
2023-04-04T08:54:50.272Z,99888.34
2023-04-04T08:57:36.035Z,99888.34
2023-04-04T09:00:22.788Z,99891.91
2023-04-04T09:03:34.310Z,99889.56
2023-04-04T09:06:20.951Z,99881.59
2023-04-04T09:09:07.367Z,99881.59
2023-04-04T09:11:53.857Z,99885.16
2023-04-04T09:14:41.317Z,99883.56
2023-04-04T09:17:26.753Z,99885.56
2023-04-04T09:20:35.350Z,99886.34
2023-04-04T09:23:21.381Z,99882.00
2023-04-04T09:26:06.967Z,99880.41
2023-04-04T09:28:53.666Z,99885.56
2023-04-04T09:31:39.265Z,99878.00
2023-04-04T09:34:24.771Z,99879.63
2023-04-04T09:37:10.254Z,99881.59
2023-04-04T09:39:56.501Z,99884.75
2023-04-04T09:42:42.261Z,99877.22
2023-04-04T09:45:43.811Z,99877.22
2023-04-04T09:48:32.710Z,99883.56
2023-04-04T09:51:18.026Z,99881.56
2023-04-04T09:54:03.901Z,99881.56
2023-04-04T09:56:50.498Z,99887.91
2023-04-04T09:59:36.666Z,99884.34
2023-04-04T10:02:22.194Z,99880.78
2023-04-04T10:05:10.487Z,99883.19
2023-04-04T10:07:57.304Z,99881.19
2023-04-04T10:10:55.703Z,99883.97
2023-04-04T10:13:52.310Z,99879.19
2023-04-04T10:16:38.697Z,99874.84
2023-04-04T10:19:24.800Z,99877.22
2023-04-04T10:22:11.257Z,99872.06
2023-04-04T10:24:58.460Z,99867.28
2023-04-04T10:27:43.883Z,99868.47
2023-04-04T10:30:29.160Z,99868.47
2023-04-04T10:33:28.253Z,99874.00
2023-04-04T10:36:16.752Z,99877.59
2023-04-04T10:39:09.792Z,99869.63
2023-04-04T10:41:56.835Z,99858.13
2023-04-04T10:44:42.589Z,99858.91
2023-04-04T10:47:29.390Z,99856.13
2023-04-04T10:50:15.271Z,99841.06
2023-04-04T10:53:02.204Z,99847.00
2023-04-04T10:55:47.871Z,99850.16
2023-04-04T10:58:39.802Z,99846.59
2023-04-04T11:02:00.908Z,99848.59
2023-04-04T11:04:47.982Z,99841.06
2023-04-04T11:07:33.304Z,99850.56
2023-04-04T11:10:25.472Z,99854.53
2023-04-04T11:13:17.131Z,99851.75
2023-04-04T11:16:15.511Z,99844.22
2023-04-04T11:19:01.852Z,99849.78
2023-04-04T11:21:46.993Z,99848.16
2023-04-04T11:24:42.428Z,99844.59
2023-04-04T11:27:30.541Z,99835.50
2023-04-04T11:30:16.041Z,99837.44
2023-04-04T11:33:06.901Z,99831.50
2023-04-04T11:35:53.668Z,99828.72
2023-04-04T11:38:40.280Z,99837.03
2023-04-04T11:41:58.705Z,99822.38
2023-04-04T11:44:56.460Z,99819.97
2023-04-04T11:47:47.487Z,99821.94
2023-04-04T11:50:39.125Z,99822.75
2023-04-04T11:53:24.225Z,99817.19
2023-04-04T11:56:15.451Z,99810.03
2023-04-04T12:01:51.094Z,99806.44
2023-04-04T12:04:38.208Z,99809.59
2023-04-04T12:07:27.071Z,99805.63
2023-04-04T12:10:12.594Z,99807.63
2023-04-04T12:12:58.779Z,99797.28
2023-04-04T12:15:44.280Z,99795.31
2023-04-04T12:18:29.688Z,99777.44
2023-04-04T12:21:15.805Z,99794.06
2023-04-04T12:24:01.033Z,99798.84
2023-04-04T12:26:48.923Z,99793.28
2023-04-04T12:29:38.403Z,99794.84
2023-04-04T12:32:24.238Z,99777.41
2023-04-04T12:35:12.162Z,99783.72
2023-04-04T12:37:58.142Z,99775.00
2023-04-04T12:40:44.756Z,99771.81
2023-04-04T12:43:32.038Z,99776.16
2023-04-04T12:46:17.648Z,99771.75
2023-04-04T12:49:03.673Z,99774.97
2023-04-04T12:51:49.141Z,99765.41
2023-04-04T12:54:38.726Z,99773.34
2023-04-04T12:57:26.752Z,99769.38
2023-04-04T13:00:13.952Z,99773.31
2023-04-04T13:02:59.306Z,99771.34
2023-04-04T13:05:47.286Z,99761.78
2023-04-04T13:08:34.055Z,99768.56
2023-04-04T13:11:19.522Z,99756.22
2023-04-04T13:14:05.827Z,99763.75
2023-04-04T13:17:11.725Z,99762.16
2023-04-04T13:19:57.497Z,99758.63
2023-04-04T13:22:42.974Z,99746.72
2023-04-04T13:25:28.859Z,99754.28
2023-04-04T13:28:14.572Z,99749.50
2023-04-04T13:31:04.521Z,99742.34
2023-04-04T13:33:49.798Z,99743.16
2023-04-04T13:36:34.998Z,99738.41
2023-04-04T13:39:20.892Z,99732.44
2023-04-04T13:42:06.247Z,99733.22
2023-04-04T13:44:51.480Z,99733.22
2023-04-04T13:47:37.292Z,99730.88
2023-04-04T13:50:23.030Z,99734.44
2023-04-04T13:53:10.430Z,99728.09
2023-04-04T13:56:17.121Z,99721.72
2023-04-04T13:59:01.964Z,99721.72
2023-04-04T14:01:47.305Z,99716.16
2023-04-04T14:04:33.248Z,99713.81
2023-04-04T14:07:19.599Z,99706.28
2023-04-04T14:10:05.492Z,99703.50
2023-04-04T14:12:50.984Z,99709.84
2023-04-04T14:15:36.179Z,99707.06
2023-04-04T14:18:21.442Z,99707.47
2023-04-04T14:21:07.317Z,99711.06
2023-04-04T14:23:52.751Z,99708.28
2023-04-04T14:26:37.979Z,99706.72
2023-04-04T14:29:23.533Z,99701.16
2023-04-04T14:32:10.724Z,99706.72
2023-04-04T14:34:56.109Z,99701.94
2023-04-04T14:37:41.354Z,99705.91
2023-04-04T14:40:28.664Z,99695.25
2023-04-04T14:43:14.320Z,99696.81
2023-04-04T14:45:59.478Z,99700.78
2023-04-04T14:48:44.992Z,99701.56
2023-04-04T14:51:32.201Z,99694.84
2023-04-04T14:54:17.691Z,99698.81
2023-04-04T14:57:03.484Z,99697.25
2023-04-04T14:59:48.665Z,99688.53
2023-04-04T15:02:34.087Z,99688.53
2023-04-04T15:05:19.682Z,99678.25
2023-04-04T15:08:04.983Z,99685.38
2023-04-04T15:10:50.048Z,99677.44
2023-04-04T15:13:35.418Z,99682.63
2023-04-04T15:16:21.571Z,99686.22
2023-04-04T15:19:06.971Z,99677.88
2023-04-04T15:21:52.736Z,99683.81
2023-04-04T15:24:38.514Z,99683.44
2023-04-04T15:27:23.796Z,99673.91
2023-04-04T15:30:09.561Z,99679.84
2023-04-04T15:32:58.146Z,99678.28
2023-04-04T15:35:43.686Z,99683.06
2023-04-04T15:38:29.312Z,99675.13
2023-04-04T15:41:14.531Z,99670.78
2023-04-04T15:43:59.875Z,99668.78
2023-04-04T15:46:45.272Z,99668.78
2023-04-04T15:49:33.770Z,99672.75
2023-04-04T15:52:19.316Z,99667.19
2023-04-04T15:55:10.070Z,99672.75
2023-04-04T15:57:55.886Z,99665.63
2023-04-04T16:00:47.372Z,99667.63
2023-04-04T16:03:33.057Z,99661.66
2023-04-04T16:06:18.321Z,99662.84
2023-04-04T16:09:04.107Z,99659.69
2023-04-04T16:11:49.407Z,99662.06
2023-04-04T16:14:34.839Z,99653.75
2023-04-04T16:17:20.455Z,99662.84
2023-04-04T16:20:06.323Z,99659.25
2023-04-04T16:22:53.409Z,99658.06
2023-04-04T16:25:40.695Z,99664.41
2023-04-04T16:28:26.021Z,99662.38
2023-04-04T16:31:14.519Z,99659.16
2023-04-04T16:33:59.925Z,99662.31
2023-04-04T16:36:45.954Z,99661.13
2023-04-04T16:39:31.494Z,99657.53
2023-04-04T16:42:19.449Z,99652.34
2023-04-04T16:45:08.151Z,99650.31
2023-04-04T16:47:53.665Z,99647.91
2023-04-04T16:50:38.956Z,99650.28
2023-04-04T16:53:24.593Z,99652.63
2023-04-04T16:56:09.918Z,99657.38
2023-04-04T16:58:55.162Z,99657.75
2023-04-04T17:01:40.776Z,99650.97
2023-04-04T17:04:27.777Z,99650.97
2023-04-04T17:07:13.150Z,99647.00
2023-04-04T17:09:58.516Z,99648.19
2023-04-04T17:12:44.098Z,99648.56
2023-04-04T17:15:29.820Z,99639.00
2023-04-04T17:18:15.961Z,99641.75
2023-04-04T17:21:02.109Z,99642.91
2023-04-04T17:23:47.688Z,99640.50
2023-04-04T17:26:33.015Z,99646.00
2023-04-04T17:29:18.969Z,99643.59
2023-04-04T17:32:04.799Z,99652.31
2023-04-04T17:34:50.388Z,99644.34
2023-04-04T17:37:35.716Z,99649.50
2023-04-04T17:40:21.366Z,99654.63
2023-04-04T17:43:06.526Z,99644.31
2023-04-04T17:45:52.510Z,99660.16
2023-04-04T17:48:37.868Z,99649.81
2023-04-04T17:51:22.944Z,99644.63
2023-04-04T17:54:08.385Z,99652.19
2023-04-04T17:56:53.970Z,99645.03
2023-04-04T17:59:39.354Z,99647.03
2023-04-04T18:02:24.525Z,99652.19
2023-04-04T18:05:10.577Z,99649.81
2023-04-04T18:07:58.128Z,99652.22
2023-04-04T18:10:43.537Z,99649.03
2023-04-04T18:13:28.840Z,99650.19
2023-04-04T18:16:14.102Z,99648.16
2023-04-04T18:19:00.311Z,99651.72
2023-04-04T18:21:51.411Z,99661.22
2023-04-04T18:24:37.352Z,99655.28
2023-04-04T18:27:22.878Z,99658.50
2023-04-04T18:30:08.752Z,99655.34
2023-04-04T18:32:55.916Z,99658.16
2023-04-04T18:35:41.311Z,99660.94
2023-04-04T18:38:27.961Z,99662.97
2023-04-04T18:41:15.028Z,99662.59
2023-04-04T18:44:00.241Z,99671.78
2023-04-04T18:46:45.540Z,99667.44
2023-04-04T18:49:31.593Z,99669.03
2023-04-04T18:52:17.120Z,99665.91
2023-04-04T18:55:05.768Z,99669.88
2023-04-04T18:57:51.450Z,99669.50
2023-04-04T19:00:36.864Z,99671.13
2023-04-04T19:03:22.489Z,99662.41
2023-04-04T19:06:11.170Z,99664.03
2023-04-04T19:08:58.609Z,99666.03
2023-04-04T19:11:45.319Z,99663.28
2023-04-04T19:14:31.202Z,99664.50
2023-04-04T19:17:18.517Z,99667.66
2023-04-04T19:20:05.338Z,99658.56
2023-04-04T19:22:51.941Z,99660.19
2023-04-04T19:25:38.379Z,99662.97
2023-04-04T19:28:24.753Z,99657.81
2023-04-04T19:31:13.495Z,99663.81
2023-04-04T19:34:00.045Z,99652.72
2023-04-04T19:36:46.647Z,99662.28
2023-04-04T19:39:34.052Z,99656.72
2023-04-04T19:42:28.237Z,99659.09
2023-04-04T19:45:14.439Z,99655.53
2023-04-04T19:48:02.334Z,99651.97
2023-04-04T19:50:47.920Z,99655.56
2023-04-04T19:53:34.114Z,99661.91
2023-04-04T19:56:24.010Z,99661.13
2023-04-04T19:59:48.457Z,99660.75
2023-04-04T20:02:34.367Z,99661.94
2023-04-04T20:05:28.929Z,99657.59
2023-04-04T20:08:15.269Z,99665.94
2023-04-04T20:11:00.692Z,99666.34
2023-04-04T20:13:46.854Z,99660.84
2023-04-04T20:16:33.320Z,99658.44
2023-04-04T20:19:20.976Z,99662.41
2023-04-04T20:22:07.398Z,99659.25
2023-04-04T20:24:52.868Z,99656.91
2023-04-04T20:27:38.513Z,99658.88
2023-04-04T20:30:26.379Z,99660.88
2023-04-04T20:33:32.560Z,99664.84
2023-04-04T20:36:22.111Z,99660.09
2023-04-04T20:39:46.024Z,99656.16
2023-04-04T20:42:36.124Z,99658.53
2023-04-04T20:45:31.857Z,99660.53
2023-04-04T20:48:35.971Z,99660.53
2023-04-04T20:51:23.973Z,99660.16
2023-04-04T20:54:09.821Z,99663.72
2023-04-04T20:56:57.123Z,99666.50
2023-04-04T20:59:43.616Z,99666.50
2023-04-04T21:02:28.980Z,99664.50
2023-04-04T21:05:33.478Z,99667.28
2023-04-04T21:08:22.004Z,99667.28
2023-04-04T21:11:07.469Z,99664.50
2023-04-04T21:13:52.914Z,99671.28
2023-04-04T21:16:38.645Z,99668.50
2023-04-04T21:19:24.523Z,99667.28
2023-04-04T21:22:10.380Z,99663.72
2023-04-04T21:24:55.970Z,99662.94
2023-04-04T21:27:41.447Z,99656.16
2023-04-04T21:30:46.653Z,99652.59
2023-04-04T21:33:31.999Z,99654.59
2023-04-04T21:36:27.258Z,99655.38
2023-04-04T21:39:22.698Z,99649.03
2023-04-04T21:42:09.079Z,99649.84
2023-04-04T21:44:54.832Z,99652.59
2023-04-04T21:47:39.999Z,99650.63
2023-04-04T21:50:25.455Z,99645.06
2023-04-04T21:53:10.885Z,99645.06
2023-04-04T21:55:56.338Z,99641.09
2023-04-04T21:58:41.600Z,99633.94
2023-04-04T22:01:27.251Z,99645.84
2023-04-04T22:04:12.754Z,99625.59
2023-04-04T22:06:58.455Z,99637.09
2023-04-04T22:09:46.536Z,99633.94
2023-04-04T22:12:33.202Z,99634.72
2023-04-04T22:15:18.495Z,99633.94
2023-04-04T22:18:03.901Z,99631.94
2023-04-04T22:20:54.853Z,99625.59
2023-04-04T22:23:40.728Z,99617.72
2023-04-04T22:26:32.032Z,99622.84
2023-04-04T22:29:17.306Z,99616.50
2023-04-04T22:32:02.727Z,99622.06
2023-04-04T22:34:48.901Z,99622.84
2023-04-04T22:37:34.164Z,99615.72
2023-04-04T22:40:19.558Z,99619.28
2023-04-04T22:43:04.748Z,99609.72
2023-04-04T22:45:51.040Z,99612.50
2023-04-04T22:48:41.204Z,99616.09
2023-04-04T22:51:26.967Z,99614.50
2023-04-04T22:54:16.088Z,99618.06
2023-04-04T22:57:01.715Z,99613.31
2023-04-04T22:59:46.957Z,99614.50
2023-04-04T23:02:32.290Z,99617.28
2023-04-04T23:05:18.691Z,99609.38
2023-04-04T23:08:04.301Z,99615.72
2023-04-04T23:10:50.098Z,99614.94
2023-04-04T23:13:36.937Z,99615.72
2023-04-04T23:16:26.109Z,99617.28
2023-04-04T23:19:12.779Z,99610.16
2023-04-04T23:21:58.288Z,99608.56
2023-04-04T23:24:44.685Z,99608.56
2023-04-04T23:27:30.230Z,99608.56
2023-04-04T23:30:15.789Z,99602.59
2023-04-04T23:33:01.671Z,99603.81
2023-04-04T23:35:46.891Z,99597.47
2023-04-04T23:38:32.030Z,99601.44
2023-04-04T23:41:18.363Z,99601.81
2023-04-04T23:44:04.176Z,99598.66
2023-04-04T23:46:49.980Z,99597.47
2023-04-04T23:49:35.855Z,99597.47
2023-04-04T23:52:21.635Z,99595.88
2023-04-04T23:55:07.954Z,99594.69
2023-04-04T23:57:56.190Z,99591.91
